Main page
METAR-TAF:

METAR-TAF

Airports :

Seychelles International Airport

Victoria, Mahé, Seychelles

latitude: 04-40S, longitude: 055-31E, elevation: 3 m

Current weather observation

The report was made 34 minutes ago, at 13:00 UTC
Wind 12 kt from the South
Temperature 30°C
Humidity 75%
Pressure 1010 hPa
Visibility 10 km or more
Few clouds at a height of 2200 ft

METAR: FSIA 281300Z 17012KT 9999 FEW022 30/25 Q1010 NOSIG

Time: 17:34 (13:34 UTC)

Forecast

The report was made 2 hours and 33 minutes ago, at 11:01 UTC
Forecast valid from 28 at 12 UTC to 29 at 12 UTC
Wind 15 kt from the Southeast
Visibility 10 km or more
Scattered clouds at a height of 2200 ft

TAF: FSIA 281101Z 2812/2912 13015KT 9999 SCT022

Weather observations and forecasts of more than 4000 airports (METAR and TAF reports).

The available stations are represented by yellow and red dots on the map.

Hover mouse over dot to see the name of the station.

Then click to see weather observations and forecasts.

To change the map : click on the green buttons with a black cross to zoom in, on the green button with a dash to zoom out, or on the green arrows for adjacent maps.


METAR-TAF: